Colby, WI (54421)

4:01 PM CDT on August 27, 2016 (GMT -0500)
Great Lakes Weather Service HQ | | Change Station

Elev 1430 ft 45.04 °N, 90.34 °W | Updated 10 minutes ago

Overcast
Overcast
67.3 °F
Feels Like 67.3 °F
N
3.2
Wind Variable Wind from ESE

Today
High -- | Low -- °F
--% Chance of Precip.
Yesterday
High -- | Low -- °F
Precip. -- in
Pressure 30.04 in
Visibility 10.0 miles
Clouds Overcast 1800 ft
Dew Point 59 °F
Humidity 74%
Rainfall 0.04 in
Snow Depth Not available.
6:18 AM 7:46 PM
Waning Crescent, 21% visible
METAR KMDZ 272055Z AUTO 14004KT 10SM OVC018 18/16 A3004 RMK AO2 T01770158
Pressure 30.04 in
Visibility 10.0 miles
Clouds Overcast 1800 ft
Dew Point 59 °F
Humidity 74%
Rainfall 0.04 in
Snow Depth Not available.
6:18 AM 7:46 PM
Waning Crescent, 21% visible
METAR KMDZ 272055Z AUTO 14004KT 10SM OVC018 18/16 A3004 RMK AO2 T01770158

10-Day Weather Forecast

Almanac

Astronomy

Aug. 27, 2016 Rise Set
Actual Time
Civil Twilight
Nautical Twilight
Astronomical Twilight
Moon
Length of Visible Light
Length of Day
Tomorrow will be .
, % of the Moon is Illuminated

Today's Extremes

State Highs State Lows

Community

WunderPhotos

Upload Photos

1,935,446 photos uploaded!

WunderBlog® & News

Nearby

Air Quality

  Air Quality AQ Index Pollutant
Not available.

Snow Depth

Station Depth Elevation

Earthquake Activity

City Distance Mag. Time & Date
Minimum magnitude displayed is 2.5.

Coastal Water Temperatures

Place Temperature

Stations

Nearby Weather Stations

Station Location Temp. Windchill Dew Point Humidity Wind Precip. Elev Updated Type
                   

Watches & Warnings

There are currently no watches in effect.